Time;durP1;ratioP1;P1;durP2;ratioP2;P2;SDS_P1;SDS_P2;PMS_P1;PMS_P2;Temp;Humidity;BMP_temperature;BMP_pressure;BME280_temperature;BME280_humidity;BME280_pressure;Samples;Min_cycle;Max_cycle;Signal;HPM_P1;HPM_P2
2023/03/28 00:00:21;;;;;;;;;;;;;;;1.09;85.86;102600.84;5044635;28;1348;-73
2023/03/28 00:02:46;;;;;;;;;;;;;;;1.05;86.03;102593.25;5043872;28;1312;-73
2023/03/28 00:05:12;;;;;;;;;;;;;;;1.02;86.30;102605.19;5040798;28;1837;-74
2023/03/28 00:07:38;;;;;;;;;;;;;;;1.00;86.10;102602.66;5042489;28;2439;-73
2023/03/28 00:10:05;;;;;;;;;;;;;;;1.00;86.00;102597.56;5043746;28;1543;-74
2023/03/28 00:12:30;;;;;;;;;;;;;;;1.02;86.43;102600.09;5043116;28;1458;-73
2023/03/28 00:14:56;;;;;;;;;;;;;;;1.05;86.48;102594.94;5027384;28;5089;-73
2023/03/28 00:17:21;;;;;;;;;;;;;;;1.08;86.34;102594.03;5042192;28;1257;-73
2023/03/28 00:19:48;;;;;;;;;;;;;;;1.09;86.07;102595.72;5026008;28;1502;-74
2023/03/28 00:22:14;;;;;;;;;;;;;;;1.04;85.69;102604.31;5046542;28;1370;-73
2023/03/28 00:24:40;;;;;;;;;;;;;;;1.04;85.75;102599.22;5045958;28;1447;-73
2023/03/28 00:27:06;;;;;;;;;;;;;;;1.01;85.98;102604.34;5044877;28;1898;-74
2023/03/28 00:29:31;;;;;;;;;;;;;;;0.97;86.00;102604.41;5045322;28;1475;-74
2023/03/28 00:31:57;;;;;;;;;;;;;;;0.92;85.91;102604.50;5043841;28;1692;-73
2023/03/28 00:34:22;;;;;;;;;;;;;;;0.90;86.20;102606.19;5045359;28;1513;-73
2023/03/28 00:36:47;;;;;;;;;;;;;;;0.87;86.11;102606.25;5042463;28;1334;-74
2023/03/28 00:39:13;;;;;;;;;;;;;;;0.85;86.00;102602.84;5040914;28;1399;-74
2023/03/28 00:41:40;;;;;;;;;;;;;;;0.87;86.28;102605.41;5025306;28;1362;-74
2023/03/28 00:44:25;;;;;;;;;;;;;;;0.88;86.08;102595.16;5042379;28;1466;-74
2023/03/28 00:46:50;;;;;;;;;;;;;;;0.89;86.02;102601.97;5035347;28;1321;-73
2023/03/28 00:49:21;;;;;;;;;;;;;;;0.89;86.28;102604.50;5038091;28;1944;-73
2023/03/28 00:51:49;;;;;;;;;;;;;;;0.90;86.05;102607.91;5037795;28;1578;-74
2023/03/28 00:54:17;;;;;;;;;;;;;;;0.90;86.06;102608.75;5045617;28;1338;-73
2023/03/28 00:56:46;;;;;;;;;;;;;;;0.91;86.04;102607.88;5043777;28;1625;-74
2023/03/28 00:59:13;;;;;;;;;;;;;;;0.83;86.19;102602.03;5043049;28;1302;-74
2023/03/28 01:01:39;;;;;;;;;;;;;;;0.77;86.34;102609.78;5042768;28;1266;-73
2023/03/28 01:04:05;;;;;;;;;;;;;;;0.74;86.29;102605.53;5044959;28;2329;-74
2023/03/28 01:06:34;;;;;;;;;;;;;;;0.73;86.48;102600.47;5045712;28;1498;-73
2023/03/28 01:09:01;;;;;;;;;;;;;;;0.74;86.55;102602.97;5047442;28;1967;-74
2023/03/28 01:11:26;;;;;;;;;;;;;;;0.77;86.30;102599.56;5042407;28;1149;-74
2023/03/28 01:13:52;;;;;;;;;;;;;;;0.78;86.22;102606.34;5034796;28;5031;-74
2023/03/28 01:16:18;;;;;;;;;;;;;;;0.70;86.49;102597.97;5024370;28;1161;-73
2023/03/28 01:18:51;;;;;;;;;;;;;;;0.72;86.56;102596.22;5034200;28;1435;-73
2023/03/28 01:21:30;;;;;;;;;;;;;;;0.72;86.57;102594.50;5041593;28;1686;-73
2023/03/28 01:24:01;;;;;;;;;;;;;;;0.71;86.83;102590.28;5039958;28;1345;-74
2023/03/28 01:26:45;;;;;;;;;;;;;;;0.70;86.58;102592.84;5044584;28;1121;-73
2023/03/28 01:29:25;;;;;;;;;;;;;;;0.66;86.49;102591.19;5041010;28;1886;-73
2023/03/28 01:32:08;;;;;;;;;;;;;;;0.65;86.78;102584.41;5041318;28;1091;-74
2023/03/28 01:34:36;;;;;;;;;;;;;;;0.64;86.77;102583.56;5041406;28;1110;-74
2023/03/28 01:37:09;;;;;;;;;;;;;;;0.66;86.91;102581.81;5027671;28;1533;-76
2023/03/28 01:39:34;;;;;;;;;;;;;;;0.65;86.78;102579.28;5033451;28;2311;-74
2023/03/28 01:42:10;;;;;;;;;;;;;;;0.67;87.05;102587.75;5045214;28;1451;-75
2023/03/28 01:44:38;;;;;;;;;;;;;;;0.61;86.87;102572.53;5042014;28;1430;-75
2023/03/28 01:47:11;;;;;;;;;;;;;;;0.55;86.92;102575.16;5045200;28;1898;-75
2023/03/28 01:49:42;;;;;;;;;;;;;;;0.49;87.30;102579.47;5037952;28;1736;-74
2023/03/28 01:52:16;;;;;;;;;;;;;;;0.44;87.30;102583.75;5048391;28;1330;-74
2023/03/28 01:54:48;;;;;;;;;;;;;;;0.34;87.26;102577.06;5049320;28;1605;-75
2023/03/28 01:57:17;;;;;;;;;;;;;;;0.34;87.49;102573.66;5047109;28;1204;-75
2023/03/28 01:59:48;;;;;;;;;;;;;;;0.32;87.61;102572.84;5045147;28;2511;-74
2023/03/28 02:02:35;;;;;;;;;;;;;;;0.33;87.60;102572.81;5047678;28;1324;-74
2023/03/28 02:05:04;;;;;;;;;;;;;;;0.31;87.60;102569.47;5043525;28;1487;-75
2023/03/28 02:07:30;;;;;;;;;;;;;;;0.29;87.75;102585.63;5042235;28;1951;-75
2023/03/28 02:09:56;;;;;;;;;;;;;;;0.27;87.96;102565.25;5050139;28;1304;-74
2023/03/28 02:12:24;;;;;;;;;;;;;;;0.22;88.04;102577.19;5046318;28;1291;-74
2023/03/28 02:14:51;;;;;;;;;;;;;;;0.18;88.12;102573.00;5025264;28;4998;-74
2023/03/28 02:17:18;;;;;;;;;;;;;;;0.15;88.19;102578.97;5048392;28;1341;-75
2023/03/28 02:19:49;;;;;;;;;;;;;;;0.13;88.51;102575.59;5027959;28;2024;-72
2023/03/28 02:22:14;;;;;;;;;;;;;;;0.10;88.02;102569.69;5028838;28;1404;-72
2023/03/28 02:24:39;;;;;;;;;;;;;;;0.07;88.20;102569.72;5048245;28;1396;-72
2023/03/28 02:27:07;;;;;;;;;;;;;;;0.09;88.52;102562.88;5049191;28;1953;-73
2023/03/28 02:29:32;;;;;;;;;;;;;;;0.04;88.56;102569.75;5039184;28;1797;-72
2023/03/28 02:31:58;;;;;;;;;;;;;;;0.02;88.51;102563.81;5045654;28;1245;-72
2023/03/28 02:34:23;;;;;;;;;;;;;;;0.01;88.15;102559.59;5045186;28;1529;-72
2023/03/28 02:36:48;;;;;;;;;;;;;;;-0.01;88.76;102559.56;5045960;28;1304;-73
2023/03/28 02:39:13;;;;;;;;;;;;;;;-0.02;88.78;102560.44;5043857;28;1347;-72
2023/03/28 02:41:57;;;;;;;;;;;;;;;-0.03;88.69;102558.75;5046258;28;1422;-73
2023/03/28 02:44:28;;;;;;;;;;;;;;;-0.05;88.67;102561.31;5046942;28;1349;-72
2023/03/28 02:47:02;;;;;;;;;;;;;;;-0.05;88.86;102571.53;5041179;28;1315;-73
2023/03/28 02:49:33;;;;;;;;;;;;;;;-0.06;88.64;102574.94;5043697;28;1898;-72
2023/03/28 02:52:08;;;;;;;;;;;;;;;-0.07;88.51;102575.78;5044309;28;1435;-73
2023/03/28 02:54:41;;;;;;;;;;;;;;;-0.09;88.90;102580.06;5047136;28;1342;-72
2023/03/28 02:57:10;;;;;;;;;;;;;;;-0.12;88.59;102574.13;5048534;28;2774;-72
2023/03/28 02:59:56;;;;;;;;;;;;;;;-0.16;88.71;102573.34;5037703;28;2054;-72
2023/03/28 03:02:21;;;;;;;;;;;;;;;-0.20;88.90;102576.75;5046274;28;1648;-72
2023/03/28 03:04:49;;;;;;;;;;;;;;;-0.21;89.46;102575.06;5043837;28;1596;-72
2023/03/28 03:07:18;;;;;;;;;;;;;;;-0.21;89.42;102564.88;5046799;28;1955;-72
2023/03/28 03:09:46;;;;;;;;;;;;;;;-0.23;89.15;102561.50;5044967;28;1245;-73
2023/03/28 03:12:12;;;;;;;;;;;;;;;-0.25;89.72;102573.41;5044958;28;2031;-72
2023/03/28 03:14:37;;;;;;;;;;;;;;;-0.27;89.07;102570.03;5044898;28;4900;-72
2023/03/28 03:17:04;;;;;;;;;;;;;;;-0.27;89.77;102570.03;5048245;28;1415;-72
2023/03/28 03:19:30;;;;;;;;;;;;;;;-0.29;89.25;102566.63;5044924;28;1405;-72
2023/03/28 03:21:55;;;;;;;;;;;;;;;-0.27;89.68;102567.47;5042871;28;1286;-72
2023/03/28 03:24:21;;;;;;;;;;;;;;;-0.30;89.62;102559.84;5043513;28;1471;-73
2023/03/28 03:26:46;;;;;;;;;;;;;;;-0.32;89.60;102559.03;5046915;28;1242;-72
2023/03/28 03:29:11;;;;;;;;;;;;;;;-0.32;89.71;102562.41;5039833;28;1955;-72
2023/03/28 03:31:36;;;;;;;;;;;;;;;-0.32;89.65;102561.56;5018079;28;1592;-72
2023/03/28 03:34:01;;;;;;;;;;;;;;;-0.32;89.75;102571.75;5045471;28;1264;-72
2023/03/28 03:36:29;;;;;;;;;;;;;;;-0.29;89.67;102566.63;5044148;28;1289;-72
2023/03/28 03:38:54;;;;;;;;;;;;;;;-0.34;89.74;102568.41;5044380;28;1349;-73
2023/03/28 03:41:19;;;;;;;;;;;;;;;-0.33;90.04;102575.19;5025867;28;1421;-72
2023/03/28 03:43:45;;;;;;;;;;;;;;;-0.38;89.81;102567.56;5027708;28;1481;-73
2023/03/28 03:46:10;;;;;;;;;;;;;;;-0.36;90.11;102565.00;5046474;28;1360;-73
2023/03/28 03:48:35;;;;;;;;;;;;;;;-0.36;90.27;102565.84;5045323;28;1981;-72
2023/03/28 03:51:00;;;;;;;;;;;;;;;-0.34;89.97;102563.31;5046155;28;2044;-73
2023/03/28 03:53:26;;;;;;;;;;;;;;;-0.35;90.16;102559.03;5025400;28;1493;-75
2023/03/28 03:55:51;;;;;;;;;;;;;;;-0.36;90.05;102559.91;5046593;28;1347;-73
2023/03/28 03:58:17;;;;;;;;;;;;;;;-0.35;90.28;102566.69;5045810;28;1414;-73
2023/03/28 04:00:43;;;;;;;;;;;;;;;-0.35;90.06;102557.31;5042144;28;1259;-73
2023/03/28 04:03:08;;;;;;;;;;;;;;;-0.33;90.09;102559.88;5042840;28;1954;-73
2023/03/28 04:05:34;;;;;;;;;;;;;;;-0.36;89.96;102563.28;5027224;28;1581;-73
2023/03/28 04:08:00;;;;;;;;;;;;;;;-0.37;90.10;102564.16;5043915;28;1971;-73
2023/03/28 04:10:25;;;;;;;;;;;;;;;-0.40;89.98;102563.31;5041764;28;2358;-72
2023/03/28 04:12:50;;;;;;;;;;;;;;;-0.40;90.25;102563.31;5037851;28;1356;-73
2023/03/28 04:15:16;;;;;;;;;;;;;;;-0.38;90.07;102566.72;5042589;28;4990;-72
2023/03/28 04:17:42;;;;;;;;;;;;;;;-0.42;89.93;102570.13;5036592;28;1752;-73
2023/03/28 04:20:11;;;;;;;;;;;;;;;-0.44;90.24;102577.81;5045513;28;1329;-73
2023/03/28 04:22:37;;;;;;;;;;;;;;;-0.42;90.36;102570.97;5045445;28;1319;-73
2023/03/28 04:25:03;;;;;;;;;;;;;;;-0.46;90.46;102558.28;5045319;28;1294;-73
2023/03/28 04:27:30;;;;;;;;;;;;;;;-0.44;90.27;102556.56;5045613;28;1898;-73
2023/03/28 04:29:55;;;;;;;;;;;;;;;-0.43;90.11;102561.66;5028402;28;1583;-73
2023/03/28 04:32:20;;;;;;;;;;;;;;;-0.43;90.23;102553.16;5045447;28;1532;-73
2023/03/28 04:34:48;;;;;;;;;;;;;;;-0.41;90.36;102551.44;5046558;28;1578;-73
2023/03/28 04:37:14;;;;;;;;;;;;;;;-0.41;90.51;102556.53;5045253;28;1487;-73
2023/03/28 04:39:40;;;;;;;;;;;;;;;-0.40;90.47;102553.13;5043944;28;1606;-73
2023/03/28 04:42:07;;;;;;;;;;;;;;;-0.46;90.02;102555.72;5036474;28;1442;-72
2023/03/28 04:44:32;;;;;;;;;;;;;;;-0.47;90.29;102556.59;5029686;28;1381;-72
2023/03/28 04:46:58;;;;;;;;;;;;;;;-0.51;90.40;102560.03;5027145;28;1387;-73
2023/03/28 04:49:23;;;;;;;;;;;;;;;-0.56;90.50;102558.34;5043413;28;2322;-73
2023/03/28 04:51:51;;;;;;;;;;;;;;;-0.55;90.13;102562.59;5045681;28;1479;-73
2023/03/28 04:54:17;;;;;;;;;;;;;;;-0.55;90.49;102565.13;5044426;28;1309;-73
2023/03/28 04:56:48;;;;;;;;;;;;;;;-0.54;90.69;102561.72;5042863;28;1375;-73
2023/03/28 04:59:14;;;;;;;;;;;;;;;-0.52;90.25;102561.72;5046254;28;1415;-72
2023/03/28 05:01:40;;;;;;;;;;;;;;;-0.51;90.03;102565.97;5045901;28;1373;-72
2023/03/28 05:04:06;;;;;;;;;;;;;;;-0.55;90.75;102564.31;5042861;28;1434;-73
2023/03/28 05:06:31;;;;;;;;;;;;;;;-0.63;90.22;102564.38;5043132;28;1198;-71
2023/03/28 05:08:56;;;;;;;;;;;;;;;-0.58;90.52;102570.25;5045945;28;1889;-72
2023/03/28 05:11:22;;;;;;;;;;;;;;;-0.57;90.67;102566.88;5040121;28;1766;-73
2023/03/28 05:13:47;;;;;;;;;;;;;;;-0.54;90.43;102569.38;5038732;28;4883;-73
2023/03/28 05:16:12;;;;;;;;;;;;;;;-0.53;90.52;102572.78;5045057;28;1454;-75
2023/03/28 05:18:37;;;;;;;;;;;;;;;-0.54;90.43;102569.38;5042305;28;1541;-73
2023/03/28 05:21:03;;;;;;;;;;;;;;;-0.55;90.50;102575.34;5045099;28;1242;-73
2023/03/28 05:23:28;;;;;;;;;;;;;;;-0.52;90.59;102578.72;5045229;28;1325;-74
2023/03/28 05:25:53;;;;;;;;;;;;;;;-0.55;90.59;102580.44;5048642;28;1642;-73
2023/03/28 05:28:19;;;;;;;;;;;;;;;-0.56;90.20;102577.91;5049403;28;1955;-73
2023/03/28 05:30:44;;;;;;;;;;;;;;;-0.61;90.00;102585.56;5048945;28;1389;-73
2023/03/28 05:33:10;;;;;;;;;;;;;;;-0.64;90.38;102583.03;5049030;28;1706;-74
2023/03/28 05:35:36;;;;;;;;;;;;;;;-0.62;90.34;102588.13;5039375;28;1452;-72
2023/03/28 05:38:01;;;;;;;;;;;;;;;-0.62;90.56;102589.00;5048287;28;1404;-73
2023/03/28 05:40:26;;;;;;;;;;;;;;;-0.61;90.83;102585.56;5047122;28;1254;-73
2023/03/28 05:42:52;;;;;;;;;;;;;;;-0.59;90.44;102588.09;5046261;28;1583;-73
2023/03/28 05:45:17;;;;;;;;;;;;;;;-0.58;90.66;102595.72;5047999;28;2335;-74
2023/03/28 05:47:42;;;;;;;;;;;;;;;-0.59;90.81;102611.88;5035884;28;1895;-74
2023/03/28 05:50:09;;;;;;;;;;;;;;;-0.57;90.60;102605.09;5049313;28;1459;-73
2023/03/28 05:52:34;;;;;;;;;;;;;;;-0.57;90.36;102597.44;5045066;28;1487;-72
2023/03/28 05:54:59;;;;;;;;;;;;;;;-0.56;90.42;102594.03;5047366;28;2196;-73
2023/03/28 05:57:25;;;;;;;;;;;;;;;-0.53;90.86;102598.25;5047986;28;1261;-74
2023/03/28 05:59:50;;;;;;;;;;;;;;;-0.51;90.64;102593.16;5042839;28;1478;-73
2023/03/28 06:02:17;;;;;;;;;;;;;;;-0.51;90.87;102590.63;5045322;28;1175;-73
2023/03/28 06:04:43;;;;;;;;;;;;;;;-0.50;90.57;102597.41;5044554;28;1176;-74
2023/03/28 06:07:09;;;;;;;;;;;;;;;-0.50;90.87;102592.31;5030143;28;1203;-73
2023/03/28 06:09:34;;;;;;;;;;;;;;;-0.48;90.85;102595.69;5046957;28;3058;-75
2023/03/28 06:12:00;;;;;;;;;;;;;;;-0.46;90.82;102599.06;5039975;28;1420;-76
2023/03/28 06:14:25;;;;;;;;;;;;;;;-0.41;90.63;102597.31;5029259;28;4876;-73
2023/03/28 06:16:51;;;;;;;;;;;;;;;-0.40;90.91;102596.44;5048625;28;1460;-74
2023/03/28 06:19:16;;;;;;;;;;;;;;;-0.37;91.07;102596.44;5047865;28;1213;-73
2023/03/28 06:21:41;;;;;;;;;;;;;;;-0.34;90.82;102589.63;5042472;28;1937;-74
2023/03/28 06:24:08;;;;;;;;;;;;;;;-0.32;90.88;102597.25;5048353;28;1317;-75
2023/03/28 06:26:33;;;;;;;;;;;;;;;-0.30;90.92;102590.44;5045896;28;1483;-75
2023/03/28 06:28:58;;;;;;;;;;;;;;;-0.26;90.97;102594.66;5046723;28;1894;-74
2023/03/28 06:31:24;;;;;;;;;;;;;;;-0.20;91.01;102586.13;5046535;28;1169;-73
2023/03/28 06:33:49;;;;;;;;;;;;;;;-0.17;91.26;102597.16;5042861;28;1329;-75
2023/03/28 06:36:14;;;;;;;;;;;;;;;-0.12;91.35;102590.28;5045441;28;1134;-74
2023/03/28 06:38:39;;;;;;;;;;;;;;;-0.07;91.42;102588.53;5042433;28;1284;-74
2023/03/28 06:41:05;;;;;;;;;;;;;;;-0.01;91.23;102592.72;5030742;28;2057;-73
2023/03/28 06:43:30;;;;;;;;;;;;;;;0.05;91.27;102596.94;5046033;28;1652;-73
2023/03/28 06:45:56;;;;;;;;;;;;;;;0.10;91.46;102601.13;5030303;28;1375;-74
2023/03/28 06:48:21;;;;;;;;;;;;;;;0.18;91.27;102603.63;5044292;28;1975;-73
2023/03/28 06:50:49;;;;;;;;;;;;;;;0.25;91.65;102605.25;5045717;28;1458;-74
2023/03/28 06:53:14;;;;;;;;;;;;;;;0.32;91.34;102606.88;5043464;28;1136;-73
2023/03/28 06:55:40;;;;;;;;;;;;;;;0.38;91.46;102601.69;5041784;28;1376;-73
2023/03/28 06:58:05;;;;;;;;;;;;;;;0.45;91.37;102602.47;5043321;28;1337;-74
2023/03/28 07:00:31;;;;;;;;;;;;;;;0.50;91.64;102601.56;5042178;28;1508;-74
2023/03/28 07:02:56;;;;;;;;;;;;;;;0.56;91.34;102610.88;5044324;28;2283;-74
2023/03/28 07:05:21;;;;;;;;;;;;;;;0.60;91.06;102601.47;5043242;28;1916;-74
2023/03/28 07:07:48;;;;;;;;;;;;;;;0.62;91.02;102609.94;5039691;28;1898;-74
2023/03/28 07:10:13;;;;;;;;;;;;;;;0.66;91.23;102609.06;5036686;28;2154;-75
2023/03/28 07:12:38;;;;;;;;;;;;;;;0.70;91.26;102613.28;5040666;28;1823;-74
2023/03/28 07:15:04;;;;;;;;;;;;;;;0.73;90.98;102613.22;5048360;28;5119;-74
2023/03/28 07:17:30;;;;;;;;;;;;;;;0.78;91.22;102603.81;5041539;28;1562;-74
2023/03/28 07:19:56;;;;;;;;;;;;;;;0.84;91.04;102615.66;5046159;28;1297;-75
2023/03/28 07:22:21;;;;;;;;;;;;;;;0.91;90.96;102613.00;5044310;28;1345;-73
2023/03/28 07:24:46;;;;;;;;;;;;;;;0.99;91.23;102616.31;5041976;28;1319;-73
2023/03/28 07:27:11;;;;;;;;;;;;;;;1.08;91.36;102609.38;5026262;28;1545;-75
2023/03/28 07:29:37;;;;;;;;;;;;;;;1.16;91.36;102615.25;5039726;28;1902;-74
2023/03/28 07:32:02;;;;;;;;;;;;;;;1.25;91.33;102618.50;5048543;28;1275;-73
2023/03/28 07:34:27;;;;;;;;;;;;;;;1.35;91.00;102618.38;5044861;28;1340;-74
2023/03/28 07:36:52;;;;;;;;;;;;;;;1.46;90.94;102621.63;5040439;28;2174;-73
2023/03/28 07:39:17;;;;;;;;;;;;;;;1.59;90.64;102613.75;5040368;28;1393;-73
2023/03/28 07:41:43;;;;;;;;;;;;;;;1.72;91.14;102618.66;5047336;28;1312;-73
2023/03/28 07:44:08;;;;;;;;;;;;;;;1.83;91.14;102617.63;5030216;28;1454;-74
2023/03/28 07:46:36;;;;;;;;;;;;;;;1.94;91.23;102622.56;5042044;28;1393;-73
2023/03/28 07:49:02;;;;;;;;;;;;;;;2.07;90.57;102629.19;5046361;28;1918;-74
2023/03/28 07:51:27;;;;;;;;;;;;;;;2.15;89.90;102625.63;5043834;28;1291;-74
2023/03/28 07:53:52;;;;;;;;;;;;;;;2.23;89.84;102624.63;5047441;28;1271;-75
2023/03/28 07:56:18;;;;;;;;;;;;;;;2.31;89.90;102619.38;5043284;28;1442;-74
2023/03/28 07:58:43;;;;;;;;;;;;;;;2.40;89.47;102624.31;5045646;28;1532;-74
2023/03/28 08:01:10;;;;;;;;;;;;;;;2.48;89.42;102616.50;5046374;28;1293;-74
2023/03/28 08:03:36;;;;;;;;;;;;;;;2.55;89.45;102618.91;5025937;28;1341;-74
2023/03/28 08:06:05;;;;;;;;;;;;;;;2.65;89.45;102619.59;5046312;28;1340;-74
2023/03/28 08:08:31;;;;;;;;;;;;;;;2.79;88.42;102612.44;5027239;28;1953;-74
2023/03/28 08:10:56;;;;;;;;;;;;;;;2.88;88.20;102616.56;5041408;28;1532;-74
2023/03/28 08:13:22;;;;;;;;;;;;;;;2.99;88.27;102614.63;5041102;28;1414;-73
2023/03/28 08:15:50;;;;;;;;;;;;;;;3.11;88.51;102621.19;5042055;28;4997;-73
2023/03/28 08:18:20;;;;;;;;;;;;;;;3.25;88.03;102623.44;5039018;28;1638;-75
2023/03/28 08:20:48;;;;;;;;;;;;;;;3.33;87.44;102634.41;5041902;28;1478;-73
2023/03/28 08:23:14;;;;;;;;;;;;;;;3.38;87.37;102627.41;5040434;28;1400;-74
2023/03/28 08:25:39;;;;;;;;;;;;;;;3.46;87.02;102626.38;5040927;28;1105;-74
2023/03/28 08:28:05;;;;;;;;;;;;;;;3.49;86.42;102625.44;5029048;28;1890;-75
2023/03/28 08:30:30;;;;;;;;;;;;;;;3.51;86.12;102620.31;5040900;28;1395;-75
2023/03/28 08:32:56;;;;;;;;;;;;;;;3.55;85.97;102620.16;5045575;28;2014;-74
2023/03/28 08:35:21;;;;;;;;;;;;;;;3.62;86.07;102624.31;5039712;28;1383;-74
2023/03/28 08:37:47;;;;;;;;;;;;;;;3.71;86.12;102624.06;5027928;28;1311;-74
2023/03/28 08:40:15;;;;;;;;;;;;;;;3.78;85.29;102611.09;5041434;28;1473;-74
2023/03/28 08:42:44;;;;;;;;;;;;;;;3.80;84.15;102610.19;5045558;28;1515;-75
2023/03/28 08:45:29;;;;;;;;;;;;;;;3.87;83.94;102623.69;5027011;28;1535;-75
2023/03/28 08:48:09;;;;;;;;;;;;;;;4.00;83.83;102614.81;5043509;28;1898;-74
2023/03/28 08:50:40;;;;;;;;;;;;;;;4.02;83.65;102605.34;5042759;28;1141;-74
2023/03/28 08:53:09;;;;;;;;;;;;;;;4.09;83.74;102606.88;5029556;28;1526;-75
2023/03/28 08:55:41;;;;;;;;;;;;;;;4.15;83.40;102606.72;5037616;28;1433;-73
2023/03/28 08:58:12;;;;;;;;;;;;;;;4.19;82.60;102608.34;5038201;28;1702;-74
2023/03/28 09:00:37;;;;;;;;;;;;;;;4.25;82.78;102607.31;5032176;28;1374;-73
2023/03/28 09:03:10;;;;;;;;;;;;;;;4.31;82.54;102612.31;5045120;28;2444;-74
2023/03/28 09:05:55;;;;;;;;;;;;;;;4.40;81.49;102606.06;5024023;28;2083;-73
2023/03/28 09:08:23;;;;;;;;;;;;;;;4.46;81.03;102605.88;4989809;28;2860;-75
2023/03/28 09:10:52;;;;;;;;;;;;;;;4.52;81.30;102610.84;5026158;28;2053;-74
2023/03/28 09:13:38;;;;;;;;;;;;;;;4.62;82.00;102607.16;5037416;28;2201;-74
2023/03/28 09:16:27;;;;;;;;;;;;;;;4.66;80.57;102601.06;5024871;28;1936;-74
2023/03/28 09:18:59;;;;;;;;;;;;;;;4.70;80.12;102599.22;5029235;28;2278;-73
2023/03/28 09:21:27;;;;;;;;;;;;;;;4.83;80.46;102594.59;5021112;28;2038;-74
2023/03/28 09:24:12;;;;;;;;;;;;;;;4.74;79.54;102595.69;5023379;28;2444;-74
2023/03/28 09:26:46;;;;;;;;;;;;;;;4.73;78.80;102594.84;5047709;28;1225;-75
2023/03/28 09:29:23;;;;;;;;;;;;;;;4.85;75.46;102603.94;5030497;28;2078;-74
2023/03/28 09:31:50;;;;;;;;;;;;;;;4.79;74.83;102594.66;5047471;28;1252;-73
2023/03/28 09:34:26;;;;;;;;;;;;;;;4.96;73.98;102590.75;5046328;28;1490;-74
2023/03/28 09:36:54;;;;;;;;;;;;;;;4.84;73.45;102585.97;5043299;28;1438;-73
2023/03/28 09:39:36;;;;;;;;;;;;;;;4.88;74.24;102585.84;5048186;28;1392;-73
2023/03/28 09:42:08;;;;;;;;;;;;;;;4.92;71.25;102578.88;5045934;28;1457;-74
2023/03/28 09:44:42;;;;;;;;;;;;;;;4.95;73.15;102583.94;5046864;28;1255;-74
2023/03/28 09:47:10;;;;;;;;;;;;;;;4.98;72.69;102588.97;5044958;28;1312;-74
2023/03/28 09:49:36;;;;;;;;;;;;;;;4.97;70.32;102577.00;5044615;28;1910;-73
2023/03/28 09:52:09;;;;;;;;;;;;;;;4.97;70.37;102582.16;5042092;28;1483;-74
2023/03/28 09:54:35;;;;;;;;;;;;;;;5.01;72.58;102579.44;5047479;28;1301;-74
2023/03/28 09:57:02;;;;;;;;;;;;;;;5.00;70.69;102582.06;5047107;28;1434;-74
2023/03/28 09:59:28;;;;;;;;;;;;;;;5.07;71.44;102581.00;5048934;28;1088;-74
2023/03/28 10:01:55;;;;;;;;;;;;;;;5.10;70.05;102573.16;5043168;28;1437;-74
2023/03/28 10:04:26;;;;;;;;;;;;;;;5.18;70.50;102566.06;5047276;28;1365;-75
2023/03/28 10:06:53;;;;;;;;;;;;;;;5.20;70.09;102564.28;5044860;28;1217;-74
2023/03/28 10:09:23;;;;;;;;;;;;;;;5.26;69.77;102563.25;5038630;28;2403;-74
2023/03/28 10:11:50;;;;;;;;;;;;;;;5.31;67.84;102554.50;5039349;28;2195;-74
2023/03/28 10:14:29;;;;;;;;;;;;;;;5.31;68.58;102541.63;5038449;28;4927;-74
2023/03/28 10:16:56;;;;;;;;;;;;;;;5.32;68.27;102552.75;5040069;28;2473;-73
2023/03/28 10:19:22;;;;;;;;;;;;;;;5.36;69.65;102538.91;5038825;28;2007;-74
2023/03/28 10:21:48;;;;;;;;;;;;;;;5.44;69.14;102536.94;5042901;28;2056;-74
2023/03/28 10:24:15;;;;;;;;;;;;;;;5.45;68.85;102533.50;5043131;28;2304;-74
2023/03/28 10:26:43;;;;;;;;;;;;;;;5.41;68.17;102520.75;5038108;28;2398;-73
2023/03/28 10:29:10;;;;;;;;;;;;;;;5.44;67.28;102520.66;5036727;28;2034;-74
2023/03/28 10:31:37;;;;;;;;;;;;;;;5.42;67.05;102527.59;5019451;28;2052;-74
2023/03/28 10:34:02;;;;;;;;;;;;;;;5.57;67.38;102516.81;5036202;28;2001;-74
2023/03/28 10:36:28;;;;;;;;;;;;;;;5.42;66.43;102523.28;5036545;28;2074;-73
2023/03/28 10:38:53;;;;;;;;;;;;;;;5.42;64.93;102523.28;5036941;28;1936;-74
2023/03/28 10:41:18;;;;;;;;;;;;;;;5.42;65.78;102512.16;5035057;28;1996;-74
2023/03/28 10:43:43;;;;;;;;;;;;;;;5.40;66.88;102513.94;5036216;28;2733;-74
2023/03/28 10:46:28;;;;;;;;;;;;;;;5.38;64.50;102513.13;5046968;28;1554;-75
2023/03/28 10:49:12;;;;;;;;;;;;;;;5.49;66.62;102508.47;5026461;28;1930;-73
2023/03/28 10:51:39;;;;;;;;;;;;;;;5.44;65.74;102510.34;5044651;28;1270;-75
2023/03/28 10:54:23;;;;;;;;;;;;;;;5.39;64.95;102501.94;5048193;28;1786;-73
2023/03/28 10:56:52;;;;;;;;;;;;;;;5.39;65.33;102496.81;5049556;28;1347;-73
2023/03/28 10:59:29;;;;;;;;;;;;;;;5.60;64.63;102499.50;5048166;28;1469;-74
2023/03/28 11:02:00;;;;;;;;;;;;;;;5.51;65.27;102493.84;5042744;28;1241;-73
2023/03/28 11:04:47;;;;;;;;;;;;;;;5.68;65.09;102491.53;5033592;28;1346;-74
2023/03/28 11:07:39;;;;;;;;;;;;;;;5.66;65.04;102485.59;5044107;28;1455;-74
2023/03/28 11:10:07;;;;;;;;;;;;;;;5.77;65.47;102478.31;5014937;28;1414;-75
2023/03/28 11:12:50;;;;;;;;;;;;;;;5.94;66.29;102479.50;5028725;28;1209;-75
2023/03/28 11:15:21;;;;;;;;;;;;;;;6.06;65.26;102476.47;5040004;28;4903;-75
2023/03/28 11:17:52;;;;;;;;;;;;;;;6.11;64.05;102461.72;5044966;28;1267;-74
2023/03/28 11:20:25;;;;;;;;;;;;;;;6.20;64.10;102466.53;5047117;28;1465;-74
2023/03/28 11:23:05;;;;;;;;;;;;;;;6.33;64.95;102467.75;5041615;28;2489;-75
2023/03/28 11:25:34;;;;;;;;;;;;;;;6.53;64.25;102451.50;5026466;28;1577;-74
2023/03/28 11:28:05;;;;;;;;;;;;;;;6.58;63.84;102446.19;5046434;28;1898;-74
2023/03/28 11:30:34;;;;;;;;;;;;;;;6.65;63.97;102432.16;5042899;28;1196;-75
2023/03/28 11:33:23;;;;;;;;;;;;;;;6.73;62.77;102432.69;5047420;28;1351;-75
2023/03/28 11:35:51;;;;;;;;;;;;;;;6.76;61.15;102430.00;5044847;28;1302;-75
2023/03/28 11:38:22;;;;;;;;;;;;;;;6.82;61.85;102429.75;5045713;28;1404;-74
2023/03/28 11:41:03;;;;;;;;;;;;;;;6.82;59.93;102429.75;5043936;28;1646;-75
2023/03/28 11:43:40;;;;;;;;;;;;;;;6.78;60.43;102420.47;5029065;28;1259;-75
2023/03/28 11:46:27;;;;;;;;;;;;;;;6.78;60.75;102417.06;5045660;28;1152;-75
2023/03/28 11:48:54;;;;;;;;;;;;;;;6.87;60.38;102409.75;5045301;28;1910;-74
2023/03/28 11:51:19;;;;;;;;;;;;;;;6.99;59.86;102410.16;5044438;28;1378;-75
2023/03/28 11:53:47;;;;;;;;;;;;;;;7.01;60.56;102404.06;5046693;28;1328;-75
2023/03/28 11:56:31;;;;;;;;;;;;;;;7.01;60.26;102403.22;5041241;28;1734;-75
2023/03/28 11:59:02;;;;;;;;;;;;;;;7.02;60.74;102395.41;5040094;28;2232;-75
2023/03/28 12:01:32;;;;;;;;;;;;;;;7.11;60.74;102389.00;5022826;28;2321;-75
2023/03/28 12:04:12;;;;;;;;;;;;;;;7.15;59.65;102380.25;5032464;28;1940;-77
2023/03/28 12:06:52;;;;;;;;;;;;;;;7.18;58.66;102374.97;5036467;28;1895;-75
2023/03/28 12:09:27;;;;;;;;;;;;;;;7.22;59.83;102365.34;5035928;28;2097;-74
2023/03/28 12:11:57;;;;;;;;;;;;;;;7.26;59.48;102362.56;5043893;28;1325;-75
2023/03/28 12:14:35;;;;;;;;;;;;;;;7.35;59.35;102361.34;5025894;28;4916;-75
2023/03/28 12:17:03;;;;;;;;;;;;;;;7.45;58.45;102347.97;5046166;28;1330;-74
2023/03/28 12:19:35;;;;;;;;;;;;;;;7.45;57.89;102341.94;5022033;28;2127;-75
2023/03/28 12:22:10;;;;;;;;;;;;;;;7.47;57.76;102342.75;5026508;28;1406;-75
2023/03/28 12:24:35;;;;;;;;;;;;;;;7.45;57.51;102341.94;5043771;28;1441;-74
2023/03/28 12:27:19;;;;;;;;;;;;;;;7.44;55.81;102350.59;5043785;28;1285;-74
2023/03/28 12:29:45;;;;;;;;;;;;;;;7.50;56.46;102339.16;5042828;28;1938;-74
2023/03/28 12:32:12;;;;;;;;;;;;;;;7.50;56.28;102334.00;5044389;28;1385;-75
2023/03/28 12:34:41;;;;;;;;;;;;;;;7.54;58.38;102320.06;5044948;28;1260;-74
2023/03/28 12:37:13;;;;;;;;;;;;;;;7.56;57.73;102324.25;5045746;28;1209;-75
2023/03/28 12:39:59;;;;;;;;;;;;;;;7.62;57.01;102315.38;5028123;28;1604;-75
2023/03/28 12:42:25;;;;;;;;;;;;;;;7.66;55.69;102306.59;5038242;28;1399;-75
2023/03/28 12:44:54;;;;;;;;;;;;;;;7.71;54.02;102312.38;5040210;28;1292;-74
2023/03/28 12:47:34;;;;;;;;;;;;;;;7.63;56.67;102309.34;5027164;28;1288;-75
2023/03/28 12:50:11;;;;;;;;;;;;;;;7.64;55.23;102311.00;5045967;28;1242;-74
2023/03/28 12:52:37;;;;;;;;;;;;;;;7.66;56.32;102309.19;5043843;28;1586;-75
2023/03/28 12:55:06;;;;;;;;;;;;;;;7.67;55.33;102313.44;5044116;28;1467;-74
2023/03/28 12:57:39;;;;;;;;;;;;;;;7.72;54.24;102304.56;5045515;28;1312;-76
2023/03/28 13:00:05;;;;;;;;;;;;;;;7.52;55.53;102309.81;5039371;28;1512;-75